sensor_id;sensor_type;location;lat;lon;timestamp;temperature;humidity
31799;DHT22;18374;51.136;3.502;2023-09-07T00:02:14;18.20;99.90
31799;DHT22;18374;51.136;3.502;2023-09-07T00:04:42;18.20;99.90
31799;DHT22;18374;51.136;3.502;2023-09-07T00:07:11;18.20;99.90
31799;DHT22;18374;51.136;3.502;2023-09-07T00:09:38;18.20;99.90
31799;DHT22;18374;51.136;3.502;2023-09-07T00:12:06;18.20;99.90
31799;DHT22;18374;51.136;3.502;2023-09-07T00:14:34;18.20;99.90
31799;DHT22;18374;51.136;3.502;2023-09-07T00:17:02;18.20;99.90
31799;DHT22;18374;51.136;3.502;2023-09-07T00:19:32;18.20;99.90
31799;DHT22;18374;51.136;3.502;2023-09-07T00:22:01;18.10;99.90
31799;DHT22;18374;51.136;3.502;2023-09-07T00:24:30;18.10;99.90
31799;DHT22;18374;51.136;3.502;2023-09-07T00:27:01;18.10;99.90
31799;DHT22;18374;51.136;3.502;2023-09-07T00:29:34;18.00;99.90
31799;DHT22;18374;51.136;3.502;2023-09-07T00:32:02;17.90;99.90
31799;DHT22;18374;51.136;3.502;2023-09-07T00:34:31;18.00;99.90
31799;DHT22;18374;51.136;3.502;2023-09-07T00:37:00;18.00;99.90
31799;DHT22;18374;51.136;3.502;2023-09-07T00:39:28;17.90;99.90
31799;DHT22;18374;51.136;3.502;2023-09-07T00:41:56;18.00;99.90
31799;DHT22;18374;51.136;3.502;2023-09-07T00:44:24;17.90;99.90
31799;DHT22;18374;51.136;3.502;2023-09-07T00:46:51;17.90;99.90
31799;DHT22;18374;51.136;3.502;2023-09-07T00:49:19;17.90;99.90
31799;DHT22;18374;51.136;3.502;2023-09-07T00:51:47;17.90;99.90
31799;DHT22;18374;51.136;3.502;2023-09-07T00:54:15;17.80;99.90
31799;DHT22;18374;51.136;3.502;2023-09-07T00:56:43;17.80;99.90
31799;DHT22;18374;51.136;3.502;2023-09-07T00:59:11;17.70;99.90
31799;DHT22;18374;51.136;3.502;2023-09-07T01:01:40;17.70;99.90
31799;DHT22;18374;51.136;3.502;2023-09-07T01:04:10;17.60;99.90
31799;DHT22;18374;51.136;3.502;2023-09-07T01:06:46;17.60;99.90
31799;DHT22;18374;51.136;3.502;2023-09-07T01:09:25;17.70;99.90
31799;DHT22;18374;51.136;3.502;2023-09-07T01:11:54;17.70;99.90
31799;DHT22;18374;51.136;3.502;2023-09-07T01:14:21;17.70;99.90
31799;DHT22;18374;51.136;3.502;2023-09-07T01:16:50;17.60;99.90
31799;DHT22;18374;51.136;3.502;2023-09-07T01:19:18;17.50;99.90
31799;DHT22;18374;51.136;3.502;2023-09-07T01:21:46;17.50;99.90
31799;DHT22;18374;51.136;3.502;2023-09-07T01:24:17;17.50;99.90
31799;DHT22;18374;51.136;3.502;2023-09-07T01:26:45;17.40;99.90
31799;DHT22;18374;51.136;3.502;2023-09-07T01:29:17;17.40;99.90
31799;DHT22;18374;51.136;3.502;2023-09-07T01:31:44;17.50;99.90
31799;DHT22;18374;51.136;3.502;2023-09-07T01:34:12;17.50;99.90
31799;DHT22;18374;51.136;3.502;2023-09-07T01:36:40;17.50;99.90
31799;DHT22;18374;51.136;3.502;2023-09-07T01:39:08;17.50;99.90
31799;DHT22;18374;51.136;3.502;2023-09-07T01:41:36;17.50;99.90
31799;DHT22;18374;51.136;3.502;2023-09-07T01:44:04;17.50;99.90
31799;DHT22;18374;51.136;3.502;2023-09-07T01:46:32;17.40;99.90
31799;DHT22;18374;51.136;3.502;2023-09-07T01:49:00;17.40;99.90
31799;DHT22;18374;51.136;3.502;2023-09-07T01:51:28;17.40;99.90
31799;DHT22;18374;51.136;3.502;2023-09-07T01:53:55;17.10;99.90
31799;DHT22;18374;51.136;3.502;2023-09-07T01:56:23;17.20;99.90
31799;DHT22;18374;51.136;3.502;2023-09-07T01:58:51;17.20;99.90
31799;DHT22;18374;51.136;3.502;2023-09-07T02:01:26;17.00;99.90
31799;DHT22;18374;51.136;3.502;2023-09-07T02:03:57;16.90;99.90
31799;DHT22;18374;51.136;3.502;2023-09-07T02:06:25;16.90;99.90
31799;DHT22;18374;51.136;3.502;2023-09-07T02:08:54;16.80;99.90
31799;DHT22;18374;51.136;3.502;2023-09-07T02:11:23;16.80;99.90
31799;DHT22;18374;51.136;3.502;2023-09-07T02:13:51;17.00;99.90
31799;DHT22;18374;51.136;3.502;2023-09-07T02:16:19;16.90;99.90
31799;DHT22;18374;51.136;3.502;2023-09-07T02:18:50;16.90;99.90
31799;DHT22;18374;51.136;3.502;2023-09-07T02:21:18;16.90;99.90
31799;DHT22;18374;51.136;3.502;2023-09-07T02:23:46;16.80;99.90
31799;DHT22;18374;51.136;3.502;2023-09-07T02:26:13;16.80;99.90
31799;DHT22;18374;51.136;3.502;2023-09-07T02:28:42;16.80;99.90
31799;DHT22;18374;51.136;3.502;2023-09-07T02:31:10;16.80;99.90
31799;DHT22;18374;51.136;3.502;2023-09-07T02:33:38;16.80;99.90
31799;DHT22;18374;51.136;3.502;2023-09-07T02:36:06;16.80;99.90
31799;DHT22;18374;51.136;3.502;2023-09-07T02:38:34;16.80;99.90
31799;DHT22;18374;51.136;3.502;2023-09-07T02:41:02;16.90;99.90
31799;DHT22;18374;51.136;3.502;2023-09-07T02:43:30;16.90;99.90
31799;DHT22;18374;51.136;3.502;2023-09-07T02:45:59;16.90;99.90
31799;DHT22;18374;51.136;3.502;2023-09-07T02:48:27;16.80;99.90
31799;DHT22;18374;51.136;3.502;2023-09-07T02:50:55;16.80;99.90
31799;DHT22;18374;51.136;3.502;2023-09-07T02:53:26;16.80;99.90
31799;DHT22;18374;51.136;3.502;2023-09-07T02:55:54;16.70;99.90
31799;DHT22;18374;51.136;3.502;2023-09-07T02:58:22;16.80;99.90
31799;DHT22;18374;51.136;3.502;2023-09-07T03:00:52;16.80;99.90
31799;DHT22;18374;51.136;3.502;2023-09-07T03:03:21;16.80;99.90
31799;DHT22;18374;51.136;3.502;2023-09-07T03:05:49;16.80;99.90
31799;DHT22;18374;51.136;3.502;2023-09-07T03:08:17;16.70;99.90
31799;DHT22;18374;51.136;3.502;2023-09-07T03:10:45;16.60;99.90
31799;DHT22;18374;51.136;3.502;2023-09-07T03:13:13;16.50;99.90
31799;DHT22;18374;51.136;3.502;2023-09-07T03:15:41;16.50;99.90
31799;DHT22;18374;51.136;3.502;2023-09-07T03:18:12;16.50;99.90
31799;DHT22;18374;51.136;3.502;2023-09-07T03:20:41;16.40;99.90
31799;DHT22;18374;51.136;3.502;2023-09-07T03:23:10;16.40;99.90
31799;DHT22;18374;51.136;3.502;2023-09-07T03:25:38;16.40;99.90
31799;DHT22;18374;51.136;3.502;2023-09-07T03:28:05;16.40;99.90
31799;DHT22;18374;51.136;3.502;2023-09-07T03:30:35;16.20;99.90
31799;DHT22;18374;51.136;3.502;2023-09-07T03:33:05;16.20;99.90
31799;DHT22;18374;51.136;3.502;2023-09-07T03:35:33;16.20;99.90
31799;DHT22;18374;51.136;3.502;2023-09-07T03:38:01;16.20;99.90
31799;DHT22;18374;51.136;3.502;2023-09-07T03:40:29;16.20;99.90
31799;DHT22;18374;51.136;3.502;2023-09-07T03:42:58;16.20;99.90
31799;DHT22;18374;51.136;3.502;2023-09-07T03:45:27;16.20;99.90
31799;DHT22;18374;51.136;3.502;2023-09-07T03:47:55;16.20;99.90
31799;DHT22;18374;51.136;3.502;2023-09-07T03:50:26;16.20;99.90
31799;DHT22;18374;51.136;3.502;2023-09-07T03:52:53;16.10;99.90
31799;DHT22;18374;51.136;3.502;2023-09-07T03:55:22;16.10;99.90
31799;DHT22;18374;51.136;3.502;2023-09-07T03:57:50;16.00;99.90
31799;DHT22;18374;51.136;3.502;2023-09-07T04:00:18;16.00;99.90
31799;DHT22;18374;51.136;3.502;2023-09-07T04:02:47;16.10;99.90
31799;DHT22;18374;51.136;3.502;2023-09-07T04:05:16;16.00;99.90
31799;DHT22;18374;51.136;3.502;2023-09-07T04:07:43;16.00;99.90
31799;DHT22;18374;51.136;3.502;2023-09-07T04:10:11;15.90;99.90
31799;DHT22;18374;51.136;3.502;2023-09-07T04:12:39;15.90;99.90
31799;DHT22;18374;51.136;3.502;2023-09-07T04:15:07;15.90;99.90
31799;DHT22;18374;51.136;3.502;2023-09-07T04:17:37;15.90;99.90
31799;DHT22;18374;51.136;3.502;2023-09-07T04:20:09;15.90;99.90
31799;DHT22;18374;51.136;3.502;2023-09-07T04:22:40;16.00;99.90
31799;DHT22;18374;51.136;3.502;2023-09-07T04:25:08;15.90;99.90
31799;DHT22;18374;51.136;3.502;2023-09-07T04:27:36;16.00;99.90
31799;DHT22;18374;51.136;3.502;2023-09-07T04:30:06;15.90;99.90
31799;DHT22;18374;51.136;3.502;2023-09-07T04:32:36;15.90;99.90
31799;DHT22;18374;51.136;3.502;2023-09-07T04:35:05;15.90;99.90
31799;DHT22;18374;51.136;3.502;2023-09-07T04:37:33;16.00;99.90
31799;DHT22;18374;51.136;3.502;2023-09-07T04:40:01;15.90;99.90
31799;DHT22;18374;51.136;3.502;2023-09-07T04:42:30;15.90;99.90
31799;DHT22;18374;51.136;3.502;2023-09-07T04:44:57;15.90;99.90
31799;DHT22;18374;51.136;3.502;2023-09-07T04:47:25;15.80;99.90
31799;DHT22;18374;51.136;3.502;2023-09-07T04:49:54;15.70;99.90
31799;DHT22;18374;51.136;3.502;2023-09-07T04:52:22;15.70;99.90
31799;DHT22;18374;51.136;3.502;2023-09-07T04:54:50;15.70;99.90
31799;DHT22;18374;51.136;3.502;2023-09-07T04:57:19;15.60;99.90
31799;DHT22;18374;51.136;3.502;2023-09-07T04:59:48;15.60;99.90
31799;DHT22;18374;51.136;3.502;2023-09-07T05:02:15;15.60;99.90
31799;DHT22;18374;51.136;3.502;2023-09-07T05:04:44;15.60;99.90
31799;DHT22;18374;51.136;3.502;2023-09-07T05:07:12;15.60;99.90
31799;DHT22;18374;51.136;3.502;2023-09-07T05:09:40;15.60;99.90
31799;DHT22;18374;51.136;3.502;2023-09-07T05:12:08;15.60;99.90
31799;DHT22;18374;51.136;3.502;2023-09-07T05:14:36;15.70;99.90
31799;DHT22;18374;51.136;3.502;2023-09-07T05:17:04;15.60;99.90
31799;DHT22;18374;51.136;3.502;2023-09-07T05:19:32;15.60;99.90
31799;DHT22;18374;51.136;3.502;2023-09-07T05:22:00;15.60;99.90
31799;DHT22;18374;51.136;3.502;2023-09-07T05:24:28;15.50;99.90
31799;DHT22;18374;51.136;3.502;2023-09-07T05:26:55;15.50;99.90
31799;DHT22;18374;51.136;3.502;2023-09-07T05:29:23;15.50;99.90
31799;DHT22;18374;51.136;3.502;2023-09-07T05:31:51;15.50;99.90
31799;DHT22;18374;51.136;3.502;2023-09-07T05:34:20;15.60;99.90
31799;DHT22;18374;51.136;3.502;2023-09-07T05:36:48;15.60;99.90
31799;DHT22;18374;51.136;3.502;2023-09-07T05:39:16;15.60;99.90
31799;DHT22;18374;51.136;3.502;2023-09-07T05:41:44;15.60;99.90
31799;DHT22;18374;51.136;3.502;2023-09-07T05:44:12;15.60;99.90
31799;DHT22;18374;51.136;3.502;2023-09-07T05:46:40;15.70;99.90
31799;DHT22;18374;51.136;3.502;2023-09-07T05:49:09;15.80;99.90
31799;DHT22;18374;51.136;3.502;2023-09-07T05:51:37;15.90;99.90
31799;DHT22;18374;51.136;3.502;2023-09-07T05:54:05;15.90;99.90
31799;DHT22;18374;51.136;3.502;2023-09-07T05:56:32;16.00;99.90
31799;DHT22;18374;51.136;3.502;2023-09-07T05:59:00;16.00;99.90
31799;DHT22;18374;51.136;3.502;2023-09-07T06:01:28;16.00;99.90
31799;DHT22;18374;51.136;3.502;2023-09-07T06:03:56;16.00;99.90
31799;DHT22;18374;51.136;3.502;2023-09-07T06:06:24;16.10;99.90
31799;DHT22;18374;51.136;3.502;2023-09-07T06:08:52;16.20;99.90
31799;DHT22;18374;51.136;3.502;2023-09-07T06:11:20;16.20;99.90
31799;DHT22;18374;51.136;3.502;2023-09-07T06:13:49;16.30;99.90
31799;DHT22;18374;51.136;3.502;2023-09-07T06:16:17;16.50;99.90
31799;DHT22;18374;51.136;3.502;2023-09-07T06:18:45;16.50;99.90
31799;DHT22;18374;51.136;3.502;2023-09-07T06:21:14;16.50;99.90
31799;DHT22;18374;51.136;3.502;2023-09-07T06:23:41;16.60;99.90
31799;DHT22;18374;51.136;3.502;2023-09-07T06:26:10;16.80;99.90
31799;DHT22;18374;51.136;3.502;2023-09-07T06:28:38;16.80;99.90
31799;DHT22;18374;51.136;3.502;2023-09-07T06:31:06;16.90;99.90
31799;DHT22;18374;51.136;3.502;2023-09-07T06:33:34;17.00;99.90
31799;DHT22;18374;51.136;3.502;2023-09-07T06:36:02;17.10;99.90
31799;DHT22;18374;51.136;3.502;2023-09-07T06:38:30;17.20;99.90
31799;DHT22;18374;51.136;3.502;2023-09-07T06:41:00;17.30;99.90
31799;DHT22;18374;51.136;3.502;2023-09-07T06:43:28;17.40;99.90
31799;DHT22;18374;51.136;3.502;2023-09-07T06:46:06;17.50;99.90
31799;DHT22;18374;51.136;3.502;2023-09-07T06:48:35;17.60;99.90
31799;DHT22;18374;51.136;3.502;2023-09-07T06:51:04;17.70;99.90
31799;DHT22;18374;51.136;3.502;2023-09-07T06:53:34;17.80;99.90
31799;DHT22;18374;51.136;3.502;2023-09-07T06:56:22;17.90;99.90
31799;DHT22;18374;51.136;3.502;2023-09-07T06:58:51;18.10;99.90
31799;DHT22;18374;51.136;3.502;2023-09-07T07:01:19;18.20;99.90
31799;DHT22;18374;51.136;3.502;2023-09-07T07:03:47;18.40;99.90
31799;DHT22;18374;51.136;3.502;2023-09-07T07:06:17;18.50;99.90
31799;DHT22;18374;51.136;3.502;2023-09-07T07:08:45;18.70;99.90
31799;DHT22;18374;51.136;3.502;2023-09-07T07:11:12;18.90;99.90
31799;DHT22;18374;51.136;3.502;2023-09-07T07:13:40;19.10;99.90
31799;DHT22;18374;51.136;3.502;2023-09-07T07:16:08;19.30;99.90
31799;DHT22;18374;51.136;3.502;2023-09-07T07:18:36;19.50;99.90
31799;DHT22;18374;51.136;3.502;2023-09-07T07:21:05;19.70;99.90
31799;DHT22;18374;51.136;3.502;2023-09-07T07:23:33;19.90;99.90
31799;DHT22;18374;51.136;3.502;2023-09-07T07:26:00;20.10;99.90
31799;DHT22;18374;51.136;3.502;2023-09-07T07:28:28;20.30;99.90
31799;DHT22;18374;51.136;3.502;2023-09-07T07:30:56;20.50;99.90
31799;DHT22;18374;51.136;3.502;2023-09-07T07:33:24;20.60;99.90
31799;DHT22;18374;51.136;3.502;2023-09-07T07:35:53;20.80;99.90
31799;DHT22;18374;51.136;3.502;2023-09-07T07:38:22;21.00;99.90
31799;DHT22;18374;51.136;3.502;2023-09-07T07:40:50;21.10;99.90
31799;DHT22;18374;51.136;3.502;2023-09-07T07:43:20;21.30;99.90
31799;DHT22;18374;51.136;3.502;2023-09-07T07:45:48;21.40;99.90
31799;DHT22;18374;51.136;3.502;2023-09-07T07:48:16;21.60;99.90
31799;DHT22;18374;51.136;3.502;2023-09-07T07:50:44;21.70;99.90
31799;DHT22;18374;51.136;3.502;2023-09-07T07:53:14;21.80;99.90
31799;DHT22;18374;51.136;3.502;2023-09-07T07:55:43;22.00;99.90
31799;DHT22;18374;51.136;3.502;2023-09-07T07:58:15;22.20;99.90
31799;DHT22;18374;51.136;3.502;2023-09-07T08:00:43;22.20;99.90
31799;DHT22;18374;51.136;3.502;2023-09-07T08:03:20;22.40;99.90
31799;DHT22;18374;51.136;3.502;2023-09-07T08:05:48;22.50;99.90
31799;DHT22;18374;51.136;3.502;2023-09-07T08:08:16;22.60;99.90
31799;DHT22;18374;51.136;3.502;2023-09-07T08:10:45;22.70;99.90
31799;DHT22;18374;51.136;3.502;2023-09-07T08:13:13;22.90;99.90
31799;DHT22;18374;51.136;3.502;2023-09-07T08:15:42;22.90;99.90
31799;DHT22;18374;51.136;3.502;2023-09-07T08:18:11;23.10;99.90
31799;DHT22;18374;51.136;3.502;2023-09-07T08:20:40;23.10;99.90
31799;DHT22;18374;51.136;3.502;2023-09-07T08:23:09;23.30;99.90
31799;DHT22;18374;51.136;3.502;2023-09-07T08:25:39;23.50;99.90
31799;DHT22;18374;51.136;3.502;2023-09-07T08:28:13;23.60;99.90
31799;DHT22;18374;51.136;3.502;2023-09-07T08:30:41;23.70;99.90
31799;DHT22;18374;51.136;3.502;2023-09-07T08:33:09;23.90;99.90
31799;DHT22;18374;51.136;3.502;2023-09-07T08:35:37;24.10;99.90
31799;DHT22;18374;51.136;3.502;2023-09-07T08:38:11;24.20;99.90
31799;DHT22;18374;51.136;3.502;2023-09-07T08:40:39;24.40;99.90
31799;DHT22;18374;51.136;3.502;2023-09-07T08:43:10;24.60;99.90
31799;DHT22;18374;51.136;3.502;2023-09-07T08:45:47;24.70;99.90
31799;DHT22;18374;51.136;3.502;2023-09-07T08:48:21;24.80;99.90
31799;DHT22;18374;51.136;3.502;2023-09-07T08:50:50;24.90;99.90
31799;DHT22;18374;51.136;3.502;2023-09-07T08:53:19;25.00;99.90
31799;DHT22;18374;51.136;3.502;2023-09-07T08:55:48;25.00;99.90
31799;DHT22;18374;51.136;3.502;2023-09-07T08:58:16;25.10;99.90
31799;DHT22;18374;51.136;3.502;2023-09-07T09:00:43;25.20;99.90
31799;DHT22;18374;51.136;3.502;2023-09-07T09:03:11;25.30;99.90
31799;DHT22;18374;51.136;3.502;2023-09-07T09:05:40;25.50;99.90
31799;DHT22;18374;51.136;3.502;2023-09-07T09:08:08;25.60;99.90
31799;DHT22;18374;51.136;3.502;2023-09-07T09:10:39;25.70;99.90
31799;DHT22;18374;51.136;3.502;2023-09-07T09:13:07;25.90;99.90
31799;DHT22;18374;51.136;3.502;2023-09-07T09:15:35;26.00;99.90
31799;DHT22;18374;51.136;3.502;2023-09-07T09:18:13;26.20;99.90
31799;DHT22;18374;51.136;3.502;2023-09-07T09:20:41;26.30;99.90
31799;DHT22;18374;51.136;3.502;2023-09-07T09:23:10;26.40;99.90
31799;DHT22;18374;51.136;3.502;2023-09-07T09:25:43;26.50;99.90
31799;DHT22;18374;51.136;3.502;2023-09-07T09:28:10;26.60;99.90
31799;DHT22;18374;51.136;3.502;2023-09-07T09:30:38;26.80;99.90
31799;DHT22;18374;51.136;3.502;2023-09-07T09:33:06;26.80;99.90
31799;DHT22;18374;51.136;3.502;2023-09-07T09:35:35;26.90;99.90
31799;DHT22;18374;51.136;3.502;2023-09-07T09:38:05;26.90;99.90
31799;DHT22;18374;51.136;3.502;2023-09-07T09:40:34;26.90;99.90
31799;DHT22;18374;51.136;3.502;2023-09-07T09:43:06;27.00;99.90
31799;DHT22;18374;51.136;3.502;2023-09-07T09:45:35;27.00;99.90
31799;DHT22;18374;51.136;3.502;2023-09-07T09:48:05;27.30;99.90
31799;DHT22;18374;51.136;3.502;2023-09-07T09:50:33;27.50;99.90
31799;DHT22;18374;51.136;3.502;2023-09-07T09:53:06;27.50;99.90
31799;DHT22;18374;51.136;3.502;2023-09-07T09:55:35;27.40;99.90
31799;DHT22;18374;51.136;3.502;2023-09-07T09:58:03;27.70;99.90
31799;DHT22;18374;51.136;3.502;2023-09-07T10:00:31;27.80;99.90
31799;DHT22;18374;51.136;3.502;2023-09-07T10:03:11;27.90;99.90
31799;DHT22;18374;51.136;3.502;2023-09-07T10:05:46;27.90;99.90
31799;DHT22;18374;51.136;3.502;2023-09-07T10:08:15;28.00;99.90
31799;DHT22;18374;51.136;3.502;2023-09-07T10:10:48;27.90;99.90
31799;DHT22;18374;51.136;3.502;2023-09-07T10:13:29;27.80;99.90
31799;DHT22;18374;51.136;3.502;2023-09-07T10:16:07;27.90;99.90
31799;DHT22;18374;51.136;3.502;2023-09-07T10:18:37;28.00;99.90
31799;DHT22;18374;51.136;3.502;2023-09-07T10:21:06;28.20;99.90
31799;DHT22;18374;51.136;3.502;2023-09-07T10:23:43;28.50;99.90
31799;DHT22;18374;51.136;3.502;2023-09-07T10:26:16;28.60;99.90
31799;DHT22;18374;51.136;3.502;2023-09-07T10:28:45;28.60;99.90
31799;DHT22;18374;51.136;3.502;2023-09-07T10:31:14;28.50;99.90
31799;DHT22;18374;51.136;3.502;2023-09-07T10:33:45;28.60;99.90
31799;DHT22;18374;51.136;3.502;2023-09-07T10:36:40;28.50;99.90
31799;DHT22;18374;51.136;3.502;2023-09-07T10:39:09;28.20;99.90
31799;DHT22;18374;51.136;3.502;2023-09-07T10:41:44;28.00;99.90
31799;DHT22;18374;51.136;3.502;2023-09-07T10:44:12;28.30;99.90
31799;DHT22;18374;51.136;3.502;2023-09-07T10:46:41;28.50;99.90
31799;DHT22;18374;51.136;3.502;2023-09-07T10:49:11;28.80;99.90
31799;DHT22;18374;51.136;3.502;2023-09-07T10:51:41;29.10;99.30
31799;DHT22;18374;51.136;3.502;2023-09-07T10:54:24;28.90;99.90
31799;DHT22;18374;51.136;3.502;2023-09-07T10:56:53;28.70;99.90
31799;DHT22;18374;51.136;3.502;2023-09-07T10:59:21;28.70;99.80
31799;DHT22;18374;51.136;3.502;2023-09-07T11:01:49;28.60;99.90
31799;DHT22;18374;51.136;3.502;2023-09-07T11:04:16;28.70;99.90
31799;DHT22;18374;51.136;3.502;2023-09-07T11:06:46;28.90;99.20
31799;DHT22;18374;51.136;3.502;2023-09-07T11:09:13;28.70;99.50
31799;DHT22;18374;51.136;3.502;2023-09-07T11:11:46;28.90;99.80
31799;DHT22;18374;51.136;3.502;2023-09-07T11:14:14;29.20;98.80
31799;DHT22;18374;51.136;3.502;2023-09-07T11:16:42;29.10;98.70
31799;DHT22;18374;51.136;3.502;2023-09-07T11:19:10;29.20;98.80
31799;DHT22;18374;51.136;3.502;2023-09-07T11:21:42;29.20;99.70
31799;DHT22;18374;51.136;3.502;2023-09-07T11:24:10;29.40;99.20
31799;DHT22;18374;51.136;3.502;2023-09-07T11:26:45;29.60;98.50
31799;DHT22;18374;51.136;3.502;2023-09-07T11:29:15;29.80;99.50
31799;DHT22;18374;51.136;3.502;2023-09-07T11:31:44;29.80;98.00
31799;DHT22;18374;51.136;3.502;2023-09-07T11:34:14;29.80;97.00
31799;DHT22;18374;51.136;3.502;2023-09-07T11:36:43;29.90;96.40
31799;DHT22;18374;51.136;3.502;2023-09-07T11:39:11;29.90;97.20
31799;DHT22;18374;51.136;3.502;2023-09-07T11:41:43;29.90;96.70
31799;DHT22;18374;51.136;3.502;2023-09-07T11:44:11;30.00;96.60
31799;DHT22;18374;51.136;3.502;2023-09-07T11:46:40;30.10;96.40
31799;DHT22;18374;51.136;3.502;2023-09-07T11:49:08;30.30;97.30
31799;DHT22;18374;51.136;3.502;2023-09-07T11:51:38;30.50;96.00
31799;DHT22;18374;51.136;3.502;2023-09-07T11:54:06;30.50;95.80
31799;DHT22;18374;51.136;3.502;2023-09-07T11:56:34;30.20;96.90
31799;DHT22;18374;51.136;3.502;2023-09-07T11:59:06;30.30;95.70
31799;DHT22;18374;51.136;3.502;2023-09-07T12:01:34;30.50;96.80
31799;DHT22;18374;51.136;3.502;2023-09-07T12:04:03;30.40;95.60
31799;DHT22;18374;51.136;3.502;2023-09-07T12:06:32;30.30;96.40
31799;DHT22;18374;51.136;3.502;2023-09-07T12:09:00;30.30;95.70
31799;DHT22;18374;51.136;3.502;2023-09-07T12:11:30;29.90;96.00
31799;DHT22;18374;51.136;3.502;2023-09-07T12:13:58;29.90;98.30
31799;DHT22;18374;51.136;3.502;2023-09-07T12:16:27;29.90;96.20
31799;DHT22;18374;51.136;3.502;2023-09-07T12:18:55;30.10;96.80
31799;DHT22;18374;51.136;3.502;2023-09-07T12:21:23;30.20;96.90
31799;DHT22;18374;51.136;3.502;2023-09-07T12:23:50;30.50;97.30
31799;DHT22;18374;51.136;3.502;2023-09-07T12:26:19;30.60;95.70
31799;DHT22;18374;51.136;3.502;2023-09-07T12:28:48;30.50;96.80
31799;DHT22;18374;51.136;3.502;2023-09-07T12:31:16;30.70;97.10
31799;DHT22;18374;51.136;3.502;2023-09-07T12:33:44;30.70;96.00
31799;DHT22;18374;51.136;3.502;2023-09-07T12:36:12;30.70;96.00
31799;DHT22;18374;51.136;3.502;2023-09-07T12:38:40;30.70;94.50
31799;DHT22;18374;51.136;3.502;2023-09-07T12:41:07;30.80;95.80
31799;DHT22;18374;51.136;3.502;2023-09-07T12:43:36;30.60;96.00
31799;DHT22;18374;51.136;3.502;2023-09-07T12:46:03;30.70;95.40
31799;DHT22;18374;51.136;3.502;2023-09-07T12:48:31;30.70;95.10
31799;DHT22;18374;51.136;3.502;2023-09-07T12:50:59;30.90;94.30
31799;DHT22;18374;51.136;3.502;2023-09-07T12:53:27;31.00;95.10
31799;DHT22;18374;51.136;3.502;2023-09-07T12:55:54;31.30;94.50
31799;DHT22;18374;51.136;3.502;2023-09-07T12:58:22;31.60;93.10
31799;DHT22;18374;51.136;3.502;2023-09-07T13:00:50;31.80;92.10
31799;DHT22;18374;51.136;3.502;2023-09-07T13:03:20;31.90;92.30
31799;DHT22;18374;51.136;3.502;2023-09-07T13:05:48;32.30;93.60
31799;DHT22;18374;51.136;3.502;2023-09-07T13:08:16;32.40;90.70
31799;DHT22;18374;51.136;3.502;2023-09-07T13:10:44;32.60;90.90
31799;DHT22;18374;51.136;3.502;2023-09-07T13:13:11;32.70;91.40
31799;DHT22;18374;51.136;3.502;2023-09-07T13:15:39;33.10;91.60
31799;DHT22;18374;51.136;3.502;2023-09-07T13:18:07;33.40;90.90
31799;DHT22;18374;51.136;3.502;2023-09-07T13:20:35;33.80;92.00
31799;DHT22;18374;51.136;3.502;2023-09-07T13:23:03;34.50;89.40
31799;DHT22;18374;51.136;3.502;2023-09-07T13:25:31;34.70;87.20
31799;DHT22;18374;51.136;3.502;2023-09-07T13:27:59;35.00;86.80
31799;DHT22;18374;51.136;3.502;2023-09-07T13:30:28;35.20;87.10
31799;DHT22;18374;51.136;3.502;2023-09-07T13:32:55;35.40;86.10
31799;DHT22;18374;51.136;3.502;2023-09-07T13:35:23;35.40;85.10
31799;DHT22;18374;51.136;3.502;2023-09-07T13:37:51;35.40;85.50
31799;DHT22;18374;51.136;3.502;2023-09-07T13:40:19;35.30;85.90
31799;DHT22;18374;51.136;3.502;2023-09-07T13:42:51;35.30;84.40
31799;DHT22;18374;51.136;3.502;2023-09-07T13:45:19;35.20;84.30
31799;DHT22;18374;51.136;3.502;2023-09-07T13:47:46;34.70;83.80
31799;DHT22;18374;51.136;3.502;2023-09-07T13:50:14;34.10;85.60
31799;DHT22;18374;51.136;3.502;2023-09-07T13:52:42;33.80;85.00
31799;DHT22;18374;51.136;3.502;2023-09-07T13:55:10;33.50;87.00
31799;DHT22;18374;51.136;3.502;2023-09-07T13:57:37;33.00;88.70
31799;DHT22;18374;51.136;3.502;2023-09-07T14:00:05;32.60;90.60
31799;DHT22;18374;51.136;3.502;2023-09-07T14:02:33;32.20;90.50
31799;DHT22;18374;51.136;3.502;2023-09-07T14:05:01;32.00;91.00
31799;DHT22;18374;51.136;3.502;2023-09-07T14:07:30;31.70;92.60
31799;DHT22;18374;51.136;3.502;2023-09-07T14:09:58;31.50;90.80
31799;DHT22;18374;51.136;3.502;2023-09-07T14:12:25;31.20;91.80
31799;DHT22;18374;51.136;3.502;2023-09-07T14:14:54;31.10;91.40
31799;DHT22;18374;51.136;3.502;2023-09-07T14:17:21;31.00;90.30
31799;DHT22;18374;51.136;3.502;2023-09-07T14:19:50;31.00;91.90
31799;DHT22;18374;51.136;3.502;2023-09-07T14:22:17;30.80;93.60
31799;DHT22;18374;51.136;3.502;2023-09-07T14:24:45;30.80;93.10
31799;DHT22;18374;51.136;3.502;2023-09-07T14:27:13;31.00;93.00
31799;DHT22;18374;51.136;3.502;2023-09-07T14:29:40;31.00;91.70
31799;DHT22;18374;51.136;3.502;2023-09-07T14:32:08;31.00;91.30
31799;DHT22;18374;51.136;3.502;2023-09-07T14:34:36;31.00;92.40
31799;DHT22;18374;51.136;3.502;2023-09-07T14:37:04;30.90;92.80
31799;DHT22;18374;51.136;3.502;2023-09-07T14:39:32;31.00;92.30
31799;DHT22;18374;51.136;3.502;2023-09-07T14:41:59;31.20;92.50
31799;DHT22;18374;51.136;3.502;2023-09-07T14:44:28;31.60;91.40
31799;DHT22;18374;51.136;3.502;2023-09-07T14:46:56;32.10;91.00
31799;DHT22;18374;51.136;3.502;2023-09-07T14:49:24;32.60;90.70
31799;DHT22;18374;51.136;3.502;2023-09-07T14:51:52;32.80;90.90
31799;DHT22;18374;51.136;3.502;2023-09-07T14:54:20;33.30;90.80
31799;DHT22;18374;51.136;3.502;2023-09-07T14:56:48;33.70;88.70
31799;DHT22;18374;51.136;3.502;2023-09-07T14:59:16;34.30;85.40
31799;DHT22;18374;51.136;3.502;2023-09-07T15:01:43;34.90;85.80
31799;DHT22;18374;51.136;3.502;2023-09-07T15:04:24;35.90;81.60
31799;DHT22;18374;51.136;3.502;2023-09-07T15:06:53;35.80;85.30
31799;DHT22;18374;51.136;3.502;2023-09-07T15:09:21;36.40;84.00
31799;DHT22;18374;51.136;3.502;2023-09-07T15:11:48;37.30;83.80
31799;DHT22;18374;51.136;3.502;2023-09-07T15:14:16;37.80;78.90
31799;DHT22;18374;51.136;3.502;2023-09-07T15:16:44;38.10;79.00
31799;DHT22;18374;51.136;3.502;2023-09-07T15:19:12;37.80;77.40
31799;DHT22;18374;51.136;3.502;2023-09-07T15:21:40;37.80;75.30
31799;DHT22;18374;51.136;3.502;2023-09-07T15:24:08;37.20;78.10
31799;DHT22;18374;51.136;3.502;2023-09-07T15:26:45;36.80;80.60
31799;DHT22;18374;51.136;3.502;2023-09-07T15:29:13;36.10;80.70
31799;DHT22;18374;51.136;3.502;2023-09-07T15:31:41;35.10;82.70
31799;DHT22;18374;51.136;3.502;2023-09-07T15:34:09;34.20;86.30
31799;DHT22;18374;51.136;3.502;2023-09-07T15:36:37;33.50;89.70
31799;DHT22;18374;51.136;3.502;2023-09-07T15:39:05;32.80;90.40
31799;DHT22;18374;51.136;3.502;2023-09-07T15:41:33;32.20;91.00